Atlanta, Idaho
Current Conditions -  °F | °C
As of 7:47 PM on Wednesday 22 Oct 2014 (Local Time) from KSUN Reporting Station
Broken Clouds Broken Clouds  
Wind Chill: 46°   Ceiling: 12000
Heat Index: 48°   Visibility: 10mi
Dew Point: 28°   Wind: 5mph
Humidity: 46%   Direction: 350°N
Pressure: 30.16"   Gusts: NA
Location:  43.8°N, 115.13°W
Report Text: KSUN 230147Z 35004KT 10SM BKN120 09/M02 A3016
Loading
Personal Weather Stations






























Interactive Weather Map
Tropical Storm Tracking
New forecast layout! Learn more

10-Day Weather Forecast

Advertisements
Track Severe Weather on mobile